createdAt,value
2022-09-30T00:01:32.731Z,8.00
2022-09-30T00:04:01.026Z,8.70
2022-09-30T00:06:31.571Z,7.97
2022-09-30T00:08:59.941Z,7.77
2022-09-30T00:11:32.477Z,8.37
2022-09-30T00:14:01.096Z,7.30
2022-09-30T00:16:32.759Z,7.23
2022-09-30T00:19:01.532Z,8.23
2022-09-30T00:21:30.817Z,7.97
2022-09-30T00:23:59.403Z,6.83
2022-09-30T00:26:27.720Z,7.37
2022-09-30T00:28:57.778Z,6.57
2022-09-30T00:31:27.842Z,6.30
2022-09-30T00:34:08.137Z,5.97
2022-09-30T00:36:40.236Z,5.87
2022-09-30T00:39:10.127Z,5.75
2022-09-30T00:41:38.806Z,5.50
2022-09-30T00:44:44.231Z,5.93
2022-09-30T00:47:31.708Z,6.60
2022-09-30T00:50:03.037Z,5.93
2022-09-30T00:52:33.322Z,6.17
2022-09-30T00:55:04.849Z,6.13
2022-09-30T00:57:32.741Z,5.95
2022-09-30T01:00:02.352Z,6.60
2022-09-30T01:02:30.640Z,6.38
2022-09-30T01:04:58.731Z,5.67
2022-09-30T01:07:26.925Z,7.30
2022-09-30T01:09:57.944Z,5.75
2022-09-30T01:12:27.111Z,5.55
2022-09-30T01:14:57.884Z,6.00
2022-09-30T01:17:36.486Z,5.95
2022-09-30T01:20:42.131Z,5.23
2022-09-30T01:23:30.768Z,5.30
2022-09-30T01:26:20.588Z,6.03
2022-09-30T01:29:11.894Z,5.15
2022-09-30T01:31:50.848Z,5.22
2022-09-30T01:34:30.332Z,4.70
2022-09-30T01:37:09.078Z,4.47
2022-09-30T01:39:48.657Z,4.87
2022-09-30T01:42:24.632Z,4.70
2022-09-30T01:45:03.226Z,5.00
2022-09-30T01:47:37.438Z,4.15
2022-09-30T01:50:10.818Z,4.65
2022-09-30T01:52:46.376Z,4.50
2022-09-30T01:55:19.836Z,4.97
2022-09-30T01:57:53.872Z,4.97
2022-09-30T02:00:22.304Z,4.83
2022-09-30T02:02:56.342Z,4.97
2022-09-30T02:05:30.181Z,4.40
2022-09-30T02:08:01.767Z,4.63
2022-09-30T02:10:35.508Z,5.05
2022-09-30T02:13:10.847Z,4.68
2022-09-30T02:15:44.154Z,4.23
2022-09-30T02:18:19.750Z,4.10
2022-09-30T02:20:50.856Z,3.65
2022-09-30T02:23:25.704Z,3.90
2022-09-30T02:26:07.057Z,4.37
2022-09-30T02:28:38.279Z,4.80
2022-09-30T02:31:09.248Z,3.80
2022-09-30T02:33:43.059Z,4.15
2022-09-30T02:36:21.984Z,4.40
2022-09-30T02:38:57.744Z,3.90
2022-09-30T02:41:28.197Z,4.60
2022-09-30T02:43:56.773Z,4.13
2022-09-30T02:46:33.116Z,4.07
2022-09-30T02:49:07.768Z,4.70
2022-09-30T02:51:43.773Z,4.50
2022-09-30T02:54:23.031Z,4.43
2022-09-30T02:56:58.402Z,5.90
2022-09-30T02:59:27.446Z,5.07
2022-09-30T03:01:56.198Z,4.37
2022-09-30T03:04:28.215Z,5.30
2022-09-30T03:06:56.819Z,5.40
2022-09-30T03:09:26.960Z,5.93
2022-09-30T03:12:02.122Z,6.05
2022-09-30T03:14:46.435Z,5.97
2022-09-30T03:17:32.415Z,5.97
2022-09-30T03:20:20.802Z,5.40
2022-09-30T03:23:20.540Z,4.93
2022-09-30T03:25:54.337Z,5.40
2022-09-30T03:28:29.756Z,5.85
2022-09-30T03:31:06.542Z,5.72
2022-09-30T03:33:43.928Z,6.90
2022-09-30T03:36:21.511Z,5.60
2022-09-30T03:38:57.446Z,6.38
2022-09-30T03:41:33.450Z,5.57
2022-09-30T03:44:04.968Z,5.13
2022-09-30T03:46:36.881Z,5.50
2022-09-30T03:49:09.227Z,6.22
2022-09-30T03:51:40.117Z,6.50
2022-09-30T03:54:10.596Z,6.15
2022-09-30T03:56:43.215Z,6.68
2022-09-30T03:59:13.648Z,5.25
2022-09-30T04:01:42.201Z,6.22
2022-09-30T04:04:10.224Z,5.75
2022-09-30T04:06:39.561Z,5.68
2022-09-30T04:09:07.540Z,5.50
2022-09-30T04:11:35.482Z,5.60
2022-09-30T04:14:03.685Z,5.13
2022-09-30T04:16:31.820Z,5.35
2022-09-30T04:19:00.215Z,6.30
2022-09-30T04:21:28.963Z,6.05
2022-09-30T04:23:58.223Z,5.13
2022-09-30T04:26:26.147Z,6.03
2022-09-30T04:28:54.924Z,5.35
2022-09-30T04:31:22.869Z,5.30
2022-09-30T04:33:51.410Z,5.37
2022-09-30T04:36:19.753Z,5.00
2022-09-30T04:38:47.634Z,4.82
2022-09-30T04:41:17.949Z,4.70
2022-09-30T04:43:46.967Z,4.93
2022-09-30T04:46:15.699Z,5.75
2022-09-30T04:48:45.761Z,4.88
2022-09-30T04:51:13.997Z,4.78
2022-09-30T04:53:42.584Z,4.57
2022-09-30T04:56:11.211Z,5.32
2022-09-30T04:58:40.462Z,4.82
2022-09-30T05:01:10.513Z,3.92
2022-09-30T05:03:38.502Z,4.75
2022-09-30T05:06:07.535Z,4.70
2022-09-30T05:08:35.786Z,5.43
2022-09-30T05:11:09.525Z,4.82
2022-09-30T05:13:41.157Z,4.32
2022-09-30T05:16:10.343Z,3.93
2022-09-30T05:18:39.360Z,3.60
2022-09-30T05:21:07.779Z,4.40
2022-09-30T05:23:35.769Z,4.60
2022-09-30T05:26:05.034Z,4.55
2022-09-30T05:28:34.811Z,5.55
2022-09-30T05:31:06.551Z,4.88
2022-09-30T05:33:35.718Z,5.57
2022-09-30T05:36:05.410Z,5.72
2022-09-30T05:38:33.655Z,4.20
2022-09-30T05:41:08.330Z,5.17
2022-09-30T05:43:38.319Z,5.65
2022-09-30T05:46:08.188Z,4.80
2022-09-30T05:48:36.132Z,4.85
2022-09-30T05:51:04.709Z,3.97
2022-09-30T05:53:33.271Z,5.05
2022-09-30T05:56:01.337Z,4.53
2022-09-30T05:58:29.262Z,5.32
2022-09-30T06:00:59.555Z,5.85
2022-09-30T06:03:32.885Z,6.50
2022-09-30T06:06:01.052Z,7.38
2022-09-30T06:08:29.379Z,5.97
2022-09-30T06:10:59.524Z,5.53
2022-09-30T06:13:27.578Z,6.40
2022-09-30T06:15:59.545Z,5.90
2022-09-30T06:18:28.489Z,5.20
2022-09-30T06:20:59.279Z,5.53
2022-09-30T06:23:27.274Z,7.03
2022-09-30T06:25:56.293Z,5.90
2022-09-30T06:28:25.079Z,5.90
2022-09-30T06:30:53.042Z,6.53
2022-09-30T06:33:21.939Z,6.18
2022-09-30T06:35:51.284Z,6.18
2022-09-30T06:38:21.659Z,6.45
2022-09-30T06:40:50.365Z,6.65
2022-09-30T06:43:18.503Z,5.68
2022-09-30T06:45:47.853Z,6.43
2022-09-30T06:48:21.193Z,5.95
2022-09-30T06:51:02.178Z,5.50
2022-09-30T06:53:31.718Z,5.40
2022-09-30T06:55:59.803Z,5.43
2022-09-30T06:58:28.022Z,4.90
2022-09-30T07:01:00.809Z,6.32
2022-09-30T07:03:31.618Z,5.50
2022-09-30T07:06:01.263Z,5.23
2022-09-30T07:08:32.440Z,6.20
2022-09-30T07:11:00.935Z,5.30
2022-09-30T07:13:29.375Z,4.67
2022-09-30T07:15:58.019Z,5.50
2022-09-30T07:18:28.751Z,5.40
2022-09-30T07:20:57.671Z,5.50
2022-09-30T07:23:27.378Z,5.73
2022-09-30T07:25:58.957Z,5.85
2022-09-30T07:28:31.360Z,5.70
2022-09-30T07:31:27.347Z,6.43
2022-09-30T07:33:51.215Z,6.70
2022-09-30T07:36:22.732Z,6.20
2022-09-30T07:38:51.491Z,5.53
2022-09-30T07:41:26.916Z,7.60
2022-09-30T07:43:58.717Z,6.57
2022-09-30T07:46:29.906Z,7.43
2022-09-30T07:49:01.567Z,7.43
2022-09-30T07:51:31.412Z,8.93
2022-09-30T07:54:01.267Z,6.75
2022-09-30T07:56:45.675Z,7.67
2022-09-30T07:59:19.543Z,8.13
2022-09-30T08:01:47.841Z,9.23
2022-09-30T08:04:18.347Z,7.60
2022-09-30T08:06:48.681Z,8.77
2022-09-30T08:09:17.930Z,8.10
2022-09-30T08:11:47.383Z,8.50
2022-09-30T08:14:17.077Z,7.93
2022-09-30T08:16:45.373Z,7.83
2022-09-30T08:19:16.901Z,8.03
2022-09-30T08:21:45.198Z,7.77
2022-09-30T08:24:14.026Z,8.63
2022-09-30T08:26:42.596Z,7.50
2022-09-30T08:29:20.067Z,8.15
2022-09-30T08:31:50.266Z,8.47
2022-09-30T08:34:18.706Z,7.93
2022-09-30T08:36:46.986Z,8.60
2022-09-30T08:39:15.213Z,7.50
2022-09-30T08:42:32.734Z,9.77
2022-09-30T08:45:12.479Z,7.63
2022-09-30T08:47:47.770Z,7.43
2022-09-30T08:50:23.987Z,8.03
2022-09-30T08:52:54.767Z,9.30
2022-09-30T08:55:25.071Z,9.07
2022-09-30T08:57:54.713Z,11.03
2022-09-30T09:00:24.775Z,9.90
2022-09-30T09:02:55.888Z,10.00
2022-09-30T09:05:36.375Z,9.27
2022-09-30T09:08:10.463Z,9.43
2022-09-30T09:10:44.581Z,9.87
2022-09-30T09:13:29.152Z,9.80
2022-09-30T09:16:08.081Z,10.60
2022-09-30T09:18:45.864Z,11.67
2022-09-30T09:21:23.661Z,10.00
2022-09-30T09:23:54.448Z,8.80
2022-09-30T09:26:23.660Z,10.63
2022-09-30T09:29:04.279Z,11.70
2022-09-30T09:31:33.894Z,10.20
2022-09-30T09:34:10.297Z,10.20
2022-09-30T09:36:53.283Z,11.60
2022-09-30T09:39:36.865Z,10.60
2022-09-30T09:42:12.125Z,11.80
2022-09-30T09:44:49.339Z,13.07
2022-09-30T09:47:19.637Z,14.20
2022-09-30T09:49:55.157Z,13.07
2022-09-30T09:52:52.341Z,12.70
2022-09-30T09:55:23.411Z,13.13
2022-09-30T09:58:07.219Z,14.27
2022-09-30T10:00:52.297Z,13.00
2022-09-30T10:03:24.280Z,12.37
2022-09-30T10:06:05.184Z,13.93
2022-09-30T10:08:34.849Z,13.90
2022-09-30T10:11:04.598Z,13.37
2022-09-30T10:13:41.564Z,13.80
2022-09-30T10:16:28.247Z,13.33
2022-09-30T10:18:58.370Z,14.40
2022-09-30T10:21:28.260Z,12.93
2022-09-30T10:23:57.529Z,13.50
2022-09-30T10:29:03.947Z,12.80
2022-09-30T10:31:35.837Z,13.73
2022-09-30T10:34:16.136Z,12.80
2022-09-30T10:36:45.349Z,14.03
2022-09-30T10:39:23.182Z,14.20
2022-09-30T10:42:02.972Z,12.13
2022-09-30T10:44:31.750Z,10.70
2022-09-30T10:47:03.810Z,10.70
2022-09-30T10:49:38.040Z,9.80
2022-09-30T10:52:06.744Z,10.53
2022-09-30T10:54:49.276Z,9.87
2022-09-30T10:57:22.098Z,9.63
2022-09-30T10:59:51.505Z,9.80
2022-09-30T11:02:27.167Z,10.23
2022-09-30T11:05:05.776Z,9.40
2022-09-30T11:07:40.668Z,9.27
2022-09-30T11:10:19.627Z,8.97
2022-09-30T11:12:52.907Z,10.10
2022-09-30T11:15:26.794Z,9.10
2022-09-30T11:18:00.314Z,9.43
2022-09-30T11:20:33.196Z,9.07
2022-09-30T11:23:06.746Z,7.43
2022-09-30T11:25:44.001Z,7.27
2022-09-30T11:28:36.281Z,7.30
2022-09-30T11:31:15.556Z,6.07
2022-09-30T11:33:55.955Z,5.03
2022-09-30T11:36:31.595Z,4.43
2022-09-30T11:39:37.510Z,3.57
2022-09-30T11:42:13.311Z,4.80
2022-09-30T11:44:45.620Z,4.90
2022-09-30T11:47:28.005Z,4.83
2022-09-30T11:50:24.227Z,5.30
2022-09-30T11:53:04.202Z,5.53
2022-09-30T11:55:44.208Z,5.60
2022-09-30T11:58:39.383Z,5.80
2022-09-30T12:01:15.769Z,5.43
2022-09-30T12:03:46.605Z,5.50
2022-09-30T12:06:24.510Z,5.03
2022-09-30T12:08:58.014Z,5.13
2022-09-30T12:11:34.828Z,4.73
2022-09-30T12:14:10.695Z,5.50
2022-09-30T12:16:39.401Z,5.00
2022-09-30T12:19:17.934Z,4.50
2022-09-30T12:21:54.223Z,3.30
2022-09-30T12:24:29.770Z,3.00
2022-09-30T12:26:58.978Z,2.90
2022-09-30T12:29:49.380Z,2.80
2022-09-30T12:32:54.262Z,2.83
2022-09-30T12:35:40.849Z,3.87
2022-09-30T12:38:34.391Z,3.20
2022-09-30T12:41:16.267Z,2.57
2022-09-30T12:44:24.131Z,3.23
2022-09-30T12:47:04.020Z,3.27
2022-09-30T12:49:34.154Z,2.73
2022-09-30T12:52:14.347Z,2.87
2022-09-30T12:54:47.965Z,2.70
2022-09-30T12:57:20.853Z,2.67
2022-09-30T12:59:53.772Z,2.90
2022-09-30T13:02:35.361Z,2.63
2022-09-30T13:05:40.888Z,2.70
2022-09-30T13:08:41.669Z,2.60
2022-09-30T13:11:32.348Z,2.10
2022-09-30T13:14:29.817Z,2.20
2022-09-30T13:17:23.991Z,2.10
2022-09-30T13:19:54.341Z,1.90
2022-09-30T13:22:58.997Z,2.00
2022-09-30T13:25:27.215Z,1.70
2022-09-30T13:28:25.495Z,2.00
2022-09-30T13:31:13.363Z,2.83
2022-09-30T13:33:47.099Z,2.30
2022-09-30T13:36:25.684Z,1.60
2022-09-30T13:39:09.014Z,1.63
2022-09-30T13:41:39.248Z,1.20
2022-09-30T13:44:13.687Z,1.57
2022-09-30T13:46:50.168Z,2.13
2022-09-30T13:49:22.580Z,1.60
2022-09-30T13:51:50.684Z,1.80
2022-09-30T13:54:27.523Z,1.80
2022-09-30T13:56:56.471Z,2.40
2022-09-30T13:59:43.443Z,2.10
2022-09-30T14:02:46.176Z,2.13
2022-09-30T14:05:27.575Z,1.80
2022-09-30T14:08:25.667Z,2.10
2022-09-30T14:11:12.658Z,2.13
2022-09-30T14:13:54.612Z,1.60
2022-09-30T14:16:41.475Z,1.70
2022-09-30T14:19:37.789Z,1.47
2022-09-30T14:22:07.394Z,2.10
2022-09-30T14:24:38.051Z,1.60
2022-09-30T14:27:54.306Z,2.20
2022-09-30T14:30:23.831Z,1.90
2022-09-30T14:32:56.093Z,1.60
2022-09-30T14:35:28.532Z,1.60
2022-09-30T14:38:00.283Z,1.70
2022-09-30T14:40:30.632Z,1.90
2022-09-30T14:43:02.739Z,1.80
2022-09-30T14:45:33.462Z,2.10
2022-09-30T14:48:06.175Z,1.90
2022-09-30T14:50:42.000Z,1.70
2022-09-30T14:53:28.682Z,1.67
2022-09-30T14:55:56.904Z,1.77
2022-09-30T14:58:29.006Z,2.00
2022-09-30T15:01:07.014Z,1.87
2022-09-30T15:03:39.396Z,1.57
2022-09-30T15:06:19.409Z,1.63
2022-09-30T15:08:48.444Z,1.73
2022-09-30T15:11:21.282Z,1.60
2022-09-30T15:13:59.835Z,1.80
2022-09-30T15:16:30.171Z,1.67
2022-09-30T15:18:59.247Z,1.73
2022-09-30T15:21:32.078Z,1.83
2022-09-30T15:24:02.746Z,2.10
2022-09-30T15:26:34.107Z,2.33
2022-09-30T15:29:05.473Z,3.50
2022-09-30T15:31:34.003Z,2.57
2022-09-30T15:34:07.800Z,2.93
2022-09-30T15:36:38.210Z,2.77
2022-09-30T15:39:08.068Z,2.43
2022-09-30T15:41:41.996Z,2.10
2022-09-30T15:44:18.959Z,1.97
2022-09-30T15:47:04.251Z,2.40
2022-09-30T15:49:35.256Z,1.67
2022-09-30T15:52:29.364Z,2.20
2022-09-30T15:54:58.664Z,1.90
2022-09-30T15:57:45.437Z,2.20
2022-09-30T16:00:32.908Z,2.10
2022-09-30T16:03:17.097Z,1.87
2022-09-30T16:05:45.416Z,1.80
2022-09-30T16:08:22.733Z,2.20
2022-09-30T16:10:52.757Z,1.83
2022-09-30T16:13:24.515Z,1.60
2022-09-30T16:15:54.183Z,1.90
2022-09-30T16:18:29.079Z,2.40
2022-09-30T16:21:01.137Z,4.33
2022-09-30T16:23:35.634Z,5.53
2022-09-30T16:26:24.332Z,6.20
2022-09-30T16:28:53.064Z,5.80
2022-09-30T16:31:21.508Z,6.40
2022-09-30T16:33:49.806Z,6.87
2022-09-30T16:36:17.796Z,4.57
2022-09-30T16:38:47.014Z,3.73
2022-09-30T16:41:15.065Z,3.53
2022-09-30T16:43:43.820Z,4.43
2022-09-30T16:46:12.902Z,4.20
2022-09-30T16:48:40.857Z,4.37
2022-09-30T16:51:16.932Z,10.27
2022-09-30T16:53:47.826Z,92.40
2022-09-30T16:56:17.180Z,27.33
2022-09-30T16:58:45.327Z,26.80
2022-09-30T17:01:19.670Z,33.97
2022-09-30T17:03:47.689Z,17.50
2022-09-30T17:06:17.102Z,23.33
2022-09-30T17:08:46.692Z,35.30
2022-09-30T17:11:15.139Z,30.00
2022-09-30T17:13:43.062Z,31.73
2022-09-30T17:16:11.192Z,27.13
2022-09-30T17:18:39.154Z,22.63
2022-09-30T17:21:07.215Z,9.27
2022-09-30T17:23:35.093Z,13.37
2022-09-30T17:26:06.635Z,14.47
2022-09-30T17:28:34.727Z,6.10
2022-09-30T17:31:03.212Z,7.20
2022-09-30T17:33:32.382Z,9.20
2022-09-30T17:36:02.269Z,8.00
2022-09-30T17:38:30.633Z,8.87
2022-09-30T17:41:17.779Z,10.77
2022-09-30T17:43:47.250Z,9.43
2022-09-30T17:46:19.110Z,7.33
2022-09-30T17:48:47.724Z,8.50
2022-09-30T17:51:17.463Z,8.30
2022-09-30T17:53:45.771Z,6.30
2022-09-30T17:56:19.314Z,5.40
2022-09-30T17:58:50.798Z,4.27
2022-09-30T18:01:21.096Z,4.97
2022-09-30T18:03:52.824Z,5.40
2022-09-30T18:06:22.187Z,8.87
2022-09-30T18:08:50.523Z,7.03
2022-09-30T18:11:21.270Z,7.50
2022-09-30T18:13:55.046Z,8.93
2022-09-30T18:16:24.514Z,7.50
2022-09-30T18:18:52.728Z,5.37
2022-09-30T18:21:20.684Z,5.37
2022-09-30T18:23:51.180Z,4.90
2022-09-30T18:26:19.807Z,5.90
2022-09-30T18:28:50.832Z,5.90
2022-09-30T18:31:28.263Z,6.53
2022-09-30T18:33:56.307Z,6.50
2022-09-30T18:36:26.247Z,4.93
2022-09-30T18:38:57.034Z,5.33
2022-09-30T18:41:25.154Z,5.30
2022-09-30T18:43:56.258Z,5.60
2022-09-30T18:46:25.688Z,5.97
2022-09-30T18:48:54.602Z,6.90
2022-09-30T18:51:22.640Z,6.10
2022-09-30T18:53:55.959Z,8.57
2022-09-30T18:56:24.483Z,7.73
2022-09-30T18:58:53.082Z,8.37
2022-09-30T19:01:21.362Z,6.70
2022-09-30T19:03:52.540Z,7.77
2022-09-30T19:06:20.927Z,7.50
2022-09-30T19:08:48.831Z,8.10
2022-09-30T19:11:17.613Z,8.17
2022-09-30T19:13:47.870Z,8.87
2022-09-30T19:16:18.364Z,8.73
2022-09-30T19:18:47.508Z,8.90
2022-09-30T19:21:20.288Z,8.93
2022-09-30T19:23:49.065Z,8.73
2022-09-30T19:26:17.268Z,9.17
2022-09-30T19:28:45.231Z,8.37
2022-09-30T19:31:16.834Z,8.87
2022-09-30T19:33:55.378Z,9.40
2022-09-30T19:36:27.136Z,9.87
2022-09-30T19:39:10.082Z,9.20
2022-09-30T19:41:39.780Z,7.83
2022-09-30T19:44:07.746Z,7.43
2022-09-30T19:46:35.752Z,8.27
2022-09-30T19:49:03.735Z,7.53
2022-09-30T19:51:34.281Z,7.70
2022-09-30T19:54:07.255Z,8.00
2022-09-30T19:56:36.889Z,11.60
2022-09-30T19:59:05.804Z,13.53
2022-09-30T20:01:35.581Z,13.00
2022-09-30T20:04:05.370Z,13.00
2022-09-30T20:06:36.214Z,11.93
2022-09-30T20:09:06.536Z,13.10
2022-09-30T20:11:36.907Z,11.73
2022-09-30T20:14:24.861Z,15.20
2022-09-30T20:16:53.342Z,13.17
2022-09-30T20:19:22.327Z,12.90
2022-09-30T20:21:53.866Z,9.13
2022-09-30T20:24:22.018Z,8.93
2022-09-30T20:26:51.193Z,8.50
2022-09-30T20:29:20.550Z,12.70
2022-09-30T20:31:49.224Z,15.23
2022-09-30T20:34:19.475Z,19.67
2022-09-30T20:36:47.640Z,17.30
2022-09-30T20:39:17.022Z,13.63
2022-09-30T20:41:46.245Z,15.37
2022-09-30T20:44:14.202Z,15.97
2022-09-30T20:46:43.210Z,14.13
2022-09-30T20:49:11.211Z,13.50
2022-09-30T20:51:39.364Z,11.93
2022-09-30T20:54:07.404Z,10.83
2022-09-30T20:57:05.386Z,8.67
2022-09-30T20:59:25.052Z,8.63
2022-09-30T21:01:53.121Z,8.87
2022-09-30T21:04:21.389Z,8.13
2022-09-30T21:06:49.306Z,7.83
2022-09-30T21:09:17.335Z,8.00
2022-09-30T21:11:46.640Z,8.20
2022-09-30T21:14:17.475Z,9.10
2022-09-30T21:16:45.477Z,8.17
2022-09-30T21:19:13.554Z,8.43
2022-09-30T21:21:41.563Z,9.47
2022-09-30T21:24:09.751Z,8.47
2022-09-30T21:26:37.705Z,9.83
2022-09-30T21:29:07.041Z,9.30
2022-09-30T21:31:35.442Z,10.67
2022-09-30T21:34:03.941Z,10.67
2022-09-30T21:36:32.165Z,8.20
2022-09-30T21:39:03.407Z,8.40
2022-09-30T21:41:33.257Z,11.27
2022-09-30T21:44:03.941Z,9.90
2022-09-30T21:46:35.623Z,10.97
2022-09-30T21:49:08.085Z,9.97
2022-09-30T21:51:36.456Z,10.73
2022-09-30T21:54:04.443Z,10.60
2022-09-30T21:56:32.890Z,12.70
2022-09-30T21:59:01.037Z,14.33
2022-09-30T22:01:30.462Z,12.43
2022-09-30T22:04:00.408Z,12.80
2022-09-30T22:06:28.520Z,12.40
2022-09-30T22:08:57.064Z,13.60
2022-09-30T22:11:25.555Z,12.70
2022-09-30T22:13:55.785Z,11.67
2022-09-30T22:16:26.068Z,10.77
2022-09-30T22:18:54.266Z,12.90
2022-09-30T22:21:23.609Z,12.93
2022-09-30T22:23:52.069Z,11.23
2022-09-30T22:26:22.583Z,9.93
2022-09-30T22:28:55.469Z,12.43
2022-09-30T22:31:25.981Z,11.80
2022-09-30T22:34:14.385Z,9.87
2022-09-30T22:37:01.322Z,10.10
2022-09-30T22:39:29.878Z,9.00
2022-09-30T22:41:59.131Z,9.47
2022-09-30T22:44:28.896Z,8.60
2022-09-30T22:46:57.646Z,8.77
2022-09-30T22:49:25.911Z,8.50
2022-09-30T22:51:56.758Z,8.60
2022-09-30T22:54:26.365Z,8.40
2022-09-30T22:56:54.947Z,8.30
2022-09-30T22:59:24.051Z,8.30
2022-09-30T23:01:52.079Z,8.17
2022-09-30T23:04:20.413Z,8.33
2022-09-30T23:06:49.497Z,7.57
2022-09-30T23:09:20.642Z,7.80
2022-09-30T23:11:51.094Z,7.43
2022-09-30T23:14:19.067Z,7.60
2022-09-30T23:16:48.488Z,8.27
2022-09-30T23:19:16.705Z,7.97
2022-09-30T23:21:44.959Z,8.27
2022-09-30T23:24:13.081Z,8.30
2022-09-30T23:26:42.450Z,7.07
2022-09-30T23:29:13.628Z,7.87
2022-09-30T23:31:42.216Z,7.70
2022-09-30T23:34:10.395Z,7.10
2022-09-30T23:36:38.839Z,7.63
2022-09-30T23:39:12.585Z,7.57
2022-09-30T23:41:43.465Z,7.63
2022-09-30T23:44:11.392Z,7.40
2022-09-30T23:46:59.455Z,8.87
2022-09-30T23:49:27.881Z,7.70
2022-09-30T23:51:55.955Z,7.57
2022-09-30T23:54:23.904Z,8.07
2022-09-30T23:56:53.131Z,7.87
2022-09-30T23:59:21.028Z,8.33
